Terminal Aerodrome Forecast
Issued by NWS

Home | Current Version | Previous Version | Text Only | Print | Product List | Glossary On
Versions: 1 2 3 4 5 6 7 8 9 10 11 12 13 14 15 16 17 18 19 20 21 22
000
FTUS41 KGYX 232328
TAFLEB
TAF
KLEB 232328Z 2400/2424 19004KT P6SM -RA OVC012
      TEMPO 2400/2403 4SM BR BKN007 OVC012
     FM240300 VRB04KT 5SM BR BKN007 OVC012
     FM240600 20006KT P6SM SCT020 BKN040 BKN080
     FM241000 28007KT P6SM SCT045 SCT100
     FM241500 31009KT P6SM SCT250=

USA.gov is the U.S. government's official web portal to all federal, state and local government web resources and services.